createdAt,value
2018-09-13T00:00:15.916Z,13.6
2018-09-13T00:01:25.486Z,13.46
2018-09-13T00:02:34.783Z,13.49
2018-09-13T00:03:44.351Z,13.45
2018-09-13T00:04:54.237Z,13.48
2018-09-13T00:06:03.858Z,13.57
2018-09-13T00:07:13.707Z,13.52
2018-09-13T00:08:23.553Z,13.54
2018-09-13T00:09:32.853Z,13.48
2018-09-13T00:10:42.969Z,13.42
2018-09-13T00:11:52.538Z,13.55
2018-09-13T00:13:01.566Z,13.48
2018-09-13T00:14:11.677Z,13.52
2018-09-13T00:15:28.061Z,13.42
2018-09-13T00:16:38.172Z,13.45
2018-09-13T00:17:48.280Z,13.46
2018-09-13T00:18:58.120Z,13.44
2018-09-13T00:20:07.150Z,13.48
2018-09-13T00:21:16.715Z,13.54
2018-09-13T00:22:26.613Z,13.48
2018-09-13T00:23:36.449Z,13.44
2018-09-13T00:24:45.480Z,13.51
2018-09-13T00:25:55.079Z,13.51
2018-09-13T00:27:04.386Z,13.48
2018-09-13T00:28:13.736Z,13.52
2018-09-13T00:29:23.574Z,13.48
2018-09-13T00:30:33.147Z,13.52
2018-09-13T00:31:42.449Z,13.51
2018-09-13T00:32:51.754Z,13.52
2018-09-13T00:34:01.356Z,13.51
2018-09-13T00:35:11.473Z,13.45
2018-09-13T00:36:21.043Z,13.49
2018-09-13T00:37:31.219Z,13.42
2018-09-13T00:38:40.794Z,13.45
2018-09-13T00:39:50.145Z,13.41
2018-09-13T00:40:59.986Z,13.49
2018-09-13T00:42:10.098Z,13.32
2018-09-13T00:43:19.660Z,13.33
2018-09-13T00:44:29.010Z,13.33
2018-09-13T00:45:39.114Z,13.33
2018-09-13T00:46:48.148Z,13.36
2018-09-13T00:47:57.718Z,13.51
2018-09-13T00:49:07.557Z,13.51
2018-09-13T00:50:17.680Z,13.33
2018-09-13T00:51:27.246Z,13.44
2018-09-13T00:52:36.829Z,13.49
2018-09-13T00:53:45.859Z,13.49
2018-09-13T00:54:55.421Z,13.39
2018-09-13T00:56:04.722Z,13.33
2018-09-13T00:57:14.294Z,13.36
2018-09-13T00:58:24.169Z,13.36
2018-09-13T00:59:34.507Z,13.32
2018-09-13T01:00:44.089Z,13.42
2018-09-13T01:01:53.658Z,13.33
2018-09-13T01:03:03.228Z,13.36
2018-09-13T01:04:13.064Z,13.32
2018-09-13T01:05:22.636Z,13.36
2018-09-13T01:06:32.747Z,13.23
2018-09-13T01:07:42.600Z,13.33
2018-09-13T01:08:52.181Z,13.3
2018-09-13T01:10:02.296Z,13.25
2018-09-13T01:11:11.327Z,13.25
2018-09-13T01:12:21.172Z,13.36
2018-09-13T01:13:30.468Z,13.32
2018-09-13T01:14:40.355Z,13.25
2018-09-13T01:15:50.187Z,13.26
2018-09-13T01:16:59.789Z,13.32
2018-09-13T01:18:09.389Z,13.25
2018-09-13T01:19:19.277Z,13.38
2018-09-13T01:20:29.107Z,13.33
2018-09-13T01:21:39.233Z,13.33
2018-09-13T01:22:48.892Z,13.3
2018-09-13T01:23:58.733Z,13.32
2018-09-13T01:25:08.338Z,13.36
2018-09-13T01:26:18.444Z,13.33
2018-09-13T01:27:27.742Z,13.39
2018-09-13T01:28:37.575Z,13.38
2018-09-13T01:29:47.147Z,13.39
2018-09-13T01:30:56.721Z,13.38
2018-09-13T01:32:06.285Z,13.49
2018-09-13T01:33:16.387Z,13.41
2018-09-13T01:34:26.222Z,13.45
2018-09-13T01:35:35.799Z,13.46
2018-09-13T01:36:45.645Z,13.49
2018-09-13T01:37:55.215Z,13.46
2018-09-13T01:39:04.779Z,13.32
2018-09-13T01:40:14.621Z,13.38
2018-09-13T01:41:24.496Z,13.44
2018-09-13T01:42:34.069Z,13.32
2018-09-13T01:43:44.171Z,13.36
2018-09-13T01:44:54.011Z,13.39
2018-09-13T01:46:04.146Z,13.49
2018-09-13T01:47:13.998Z,13.39
2018-09-13T01:48:23.606Z,13.36
2018-09-13T01:49:33.223Z,13.45
2018-09-13T01:50:43.061Z,13.51
2018-09-13T01:51:53.169Z,13.39
2018-09-13T01:53:02.194Z,13.38
2018-09-13T01:54:11.225Z,13.33
2018-09-13T01:55:21.069Z,13.32
2018-09-13T01:56:30.368Z,13.36
2018-09-13T01:57:39.936Z,13.32
2018-09-13T01:58:49.509Z,13.25
2018-09-13T01:59:59.080Z,13.33
2018-09-13T02:01:08.657Z,13.36
2018-09-13T02:02:18.227Z,13.25
2018-09-13T02:03:27.806Z,13.29
2018-09-13T02:04:37.622Z,13.29
2018-09-13T02:05:47.472Z,13.28
2018-09-13T02:06:57.038Z,13.14
2018-09-13T02:08:06.854Z,13.15
2018-09-13T02:09:16.691Z,13.2
2018-09-13T02:10:25.988Z,13.2
2018-09-13T02:11:35.836Z,13.15
2018-09-13T02:12:45.678Z,13.25
2018-09-13T02:13:55.247Z,13.01
2018-09-13T02:15:04.839Z,13.05
2018-09-13T02:16:14.675Z,13.07
2018-09-13T02:17:24.783Z,13.04
2018-09-13T02:18:34.083Z,12.96
2018-09-13T02:19:43.652Z,12.96
2018-09-13T02:20:53.225Z,12.96
2018-09-13T02:22:03.339Z,12.92
2018-09-13T02:23:13.448Z,13
2018-09-13T02:24:23.299Z,13
2018-09-13T02:25:33.141Z,12.9
2018-09-13T02:26:43.019Z,12.93
2018-09-13T02:27:53.143Z,12.93
2018-09-13T02:29:02.471Z,12.9
2018-09-13T02:30:12.098Z,12.96
2018-09-13T02:31:22.225Z,12.93
2018-09-13T02:32:32.068Z,12.89
2018-09-13T02:33:41.377Z,12.85
2018-09-13T02:34:51.216Z,12.92
2018-09-13T02:36:01.069Z,12.79
2018-09-13T02:37:11.195Z,12.83
2018-09-13T02:38:21.341Z,12.86
2018-09-13T02:39:30.924Z,12.78
2018-09-13T02:40:40.761Z,12.78
2018-09-13T02:41:50.902Z,12.75
2018-09-13T02:43:00.492Z,12.82
2018-09-13T02:44:10.417Z,12.78
2018-09-13T02:45:19.983Z,12.83
2018-09-13T02:46:29.566Z,12.79
2018-09-13T02:47:38.595Z,12.7
2018-09-13T02:48:48.720Z,12.77
2018-09-13T02:49:58.857Z,12.71
2018-09-13T02:51:08.750Z,12.7
2018-09-13T02:52:18.592Z,12.64
2018-09-13T02:53:28.706Z,12.7
2018-09-13T02:54:38.822Z,12.67
2018-09-13T02:55:48.661Z,12.7
2018-09-13T02:56:58.503Z,12.71
2018-09-13T02:58:07.806Z,12.72
2018-09-13T02:59:17.653Z,12.68
2018-09-13T03:00:27.501Z,12.71
2018-09-13T03:01:37.356Z,12.68
2018-09-13T03:02:47.480Z,12.59
2018-09-13T03:03:57.057Z,12.56
2018-09-13T03:05:06.947Z,12.54
2018-09-13T03:06:17.027Z,12.53
2018-09-13T03:07:26.873Z,12.57
2018-09-13T03:08:36.454Z,12.5
2018-09-13T03:09:46.292Z,12.49
2018-09-13T03:10:55.909Z,12.45
2018-09-13T03:12:05.750Z,12.47
2018-09-13T03:13:15.595Z,12.42
2018-09-13T03:14:25.441Z,12.45
2018-09-13T03:15:35.279Z,12.42
2018-09-13T03:16:45.123Z,12.38
2018-09-13T03:17:55.237Z,12.39
2018-09-13T03:19:05.352Z,12.37
2018-09-13T03:20:14.924Z,12.39
2018-09-13T03:21:24.503Z,12.29
2018-09-13T03:22:34.344Z,12.32
2018-09-13T03:23:44.186Z,12.27
2018-09-13T03:24:54.042Z,12.31
2018-09-13T03:26:03.883Z,12.38
2018-09-13T03:27:13.728Z,12.32
2018-09-13T03:28:23.891Z,12.29
2018-09-13T03:29:34.002Z,12.32
2018-09-13T03:30:43.862Z,12.19
2018-09-13T03:31:53.730Z,12.31
2018-09-13T03:33:03.562Z,12.29
2018-09-13T03:34:13.399Z,12.24
2018-09-13T03:35:23.250Z,12.27
2018-09-13T03:36:32.822Z,12.28
2018-09-13T03:37:42.666Z,12.24
2018-09-13T03:38:52.235Z,12.19
2018-09-13T03:40:01.854Z,12.24
2018-09-13T03:41:12.019Z,12.16
2018-09-13T03:42:21.861Z,12.17
2018-09-13T03:43:31.445Z,12.19
2018-09-13T03:44:41.554Z,12.21
2018-09-13T03:45:51.607Z,12.05
2018-09-13T03:47:01.519Z,12.16
2018-09-13T03:48:11.372Z,12.14
2018-09-13T03:49:21.228Z,12.05
2018-09-13T03:50:31.339Z,12.1
2018-09-13T03:51:40.995Z,12.1
2018-09-13T03:52:51.100Z,12.05
2018-09-13T03:54:00.946Z,11.96
2018-09-13T03:55:10.529Z,11.98
2018-09-13T03:56:20.370Z,12.01
2018-09-13T03:57:30.257Z,11.99
2018-09-13T03:58:40.378Z,11.83
2018-09-13T03:59:50.218Z,11.91
2018-09-13T04:01:00.058Z,11.86
2018-09-13T04:02:09.634Z,11.82
2018-09-13T04:03:19.024Z,11.8
2018-09-13T04:04:28.853Z,11.78
2018-09-13T04:05:38.700Z,11.7
2018-09-13T04:06:48.540Z,11.75
2018-09-13T04:07:58.629Z,11.78
2018-09-13T04:09:08.596Z,11.82
2018-09-13T04:10:17.935Z,11.75
2018-09-13T04:11:28.057Z,11.69
2018-09-13T04:12:37.903Z,11.78
2018-09-13T04:13:48.011Z,11.65
2018-09-13T04:14:57.854Z,11.72
2018-09-13T04:16:07.740Z,11.7
2018-09-13T04:17:17.307Z,11.73
2018-09-13T04:18:27.649Z,11.61
2018-09-13T04:19:37.488Z,11.6
2018-09-13T04:20:47.069Z,11.57
2018-09-13T04:21:56.914Z,11.55
2018-09-13T04:23:06.774Z,11.57
2018-09-13T04:24:16.618Z,11.52
2018-09-13T04:25:26.747Z,11.55
2018-09-13T04:26:36.599Z,11.55
2018-09-13T04:27:46.707Z,11.54
2018-09-13T04:28:56.591Z,11.52
2018-09-13T04:30:06.731Z,11.51
2018-09-13T04:31:16.311Z,11.57
2018-09-13T04:32:25.624Z,11.52
2018-09-13T04:33:35.182Z,11.52
2018-09-13T04:34:44.782Z,11.58
2018-09-13T04:35:55.192Z,11.49
2018-09-13T04:37:04.923Z,11.46
2018-09-13T04:38:14.487Z,11.49
2018-09-13T04:39:24.334Z,11.54
2018-09-13T04:40:34.442Z,11.52
2018-09-13T04:41:44.298Z,11.49
2018-09-13T04:42:54.135Z,11.55
2018-09-13T04:44:03.978Z,11.55
2018-09-13T04:45:14.151Z,11.58
2018-09-13T04:46:23.998Z,11.54
2018-09-13T04:47:34.101Z,11.55
2018-09-13T04:48:44.213Z,11.55
2018-09-13T04:49:53.515Z,11.61
2018-09-13T04:51:03.357Z,11.52
2018-09-13T04:52:13.468Z,11.52
2018-09-13T04:53:23.576Z,11.51
2018-09-13T04:54:33.147Z,11.51
2018-09-13T04:55:42.712Z,11.55
2018-09-13T04:56:52.290Z,11.52
2018-09-13T04:58:02.127Z,11.46
2018-09-13T04:59:11.742Z,11.55
2018-09-13T05:00:22.154Z,11.6
2018-09-13T05:01:31.978Z,11.55
2018-09-13T05:02:42.054Z,11.49
2018-09-13T05:03:51.900Z,11.51
2018-09-13T05:05:01.760Z,11.49
2018-09-13T05:06:11.612Z,11.57
2018-09-13T05:07:20.913Z,11.52
2018-09-13T05:08:30.790Z,11.57
2018-09-13T05:09:40.093Z,11.58
2018-09-13T05:10:49.664Z,11.52
2018-09-13T05:11:58.961Z,11.42
2018-09-13T05:13:08.818Z,11.51
2018-09-13T05:14:18.661Z,11.44
2018-09-13T05:15:28.225Z,11.43
2018-09-13T05:16:37.795Z,11.42
2018-09-13T05:17:47.649Z,11.58
2018-09-13T05:18:56.949Z,11.54
2018-09-13T05:20:05.978Z,11.51
2018-09-13T05:21:16.114Z,11.57
2018-09-13T05:22:25.986Z,11.49
2018-09-13T05:23:35.310Z,11.52
2018-09-13T05:24:45.189Z,11.55
2018-09-13T05:25:54.487Z,11.52
2018-09-13T05:27:04.063Z,11.6
2018-09-13T05:28:13.632Z,11.55
2018-09-13T05:29:23.764Z,11.54
2018-09-13T05:30:33.904Z,11.57
2018-09-13T05:31:44.393Z,11.57
2018-09-13T05:32:54.424Z,11.6
2018-09-13T05:34:04.249Z,11.6
2018-09-13T05:35:14.090Z,11.61
2018-09-13T05:36:24.201Z,11.57
2018-09-13T05:37:33.772Z,11.65
2018-09-13T05:38:43.476Z,11.65
2018-09-13T05:39:53.663Z,11.73
2018-09-13T05:41:03.501Z,11.67
2018-09-13T05:42:13.351Z,11.75
2018-09-13T05:43:22.648Z,11.79
2018-09-13T05:44:32.355Z,11.79
2018-09-13T05:45:41.968Z,11.79
2018-09-13T05:46:51.579Z,11.76
2018-09-13T05:48:01.427Z,11.79
2018-09-13T05:49:11.538Z,11.88
2018-09-13T05:50:21.659Z,11.86
2018-09-13T05:51:31.496Z,11.94
2018-09-13T05:52:41.166Z,11.99
2018-09-13T05:53:50.746Z,11.91
2018-09-13T05:55:00.052Z,11.94
2018-09-13T05:56:09.086Z,12.04
2018-09-13T05:57:19.208Z,12.07
2018-09-13T05:58:29.043Z,12.14
2018-09-13T05:59:38.352Z,12.07
2018-09-13T06:00:48.461Z,12.09
2018-09-13T06:01:58.300Z,12.2
2018-09-13T06:03:08.137Z,12.14
2018-09-13T06:04:17.730Z,12.16
2018-09-13T06:05:27.300Z,12.2
2018-09-13T06:06:36.874Z,12.17
2018-09-13T06:07:46.723Z,12.16
2018-09-13T06:08:56.431Z,12.23
2018-09-13T06:10:06.279Z,12.27
2018-09-13T06:11:15.578Z,12.31
2018-09-13T06:12:25.153Z,12.21
2018-09-13T06:13:35.282Z,12.29
2018-09-13T06:14:45.051Z,12.39
2018-09-13T06:15:54.896Z,12.46
2018-09-13T06:17:04.747Z,12.35
2018-09-13T06:18:14.083Z,12.42
2018-09-13T06:19:24.195Z,12.38
2018-09-13T06:20:34.309Z,12.41
2018-09-13T06:21:43.658Z,12.49
2018-09-13T06:22:53.533Z,12.52
2018-09-13T06:24:03.104Z,12.39
2018-09-13T06:25:12.942Z,12.39
2018-09-13T06:26:22.793Z,12.5
2018-09-13T06:27:32.639Z,12.47
2018-09-13T06:28:42.211Z,12.46
2018-09-13T06:29:52.322Z,12.56
2018-09-13T06:31:02.169Z,12.52
2018-09-13T06:32:11.223Z,12.53
2018-09-13T06:33:21.334Z,12.57
2018-09-13T06:34:31.179Z,12.67
2018-09-13T06:35:40.483Z,12.53
2018-09-13T06:36:50.594Z,12.5
2018-09-13T06:38:00.436Z,12.5
2018-09-13T06:39:10.003Z,12.68
2018-09-13T06:40:19.583Z,12.65
2018-09-13T06:41:29.160Z,12.59
2018-09-13T06:42:38.856Z,12.52
2018-09-13T06:43:48.695Z,12.52
2018-09-13T06:44:58.270Z,12.54
2018-09-13T06:46:07.569Z,12.56
2018-09-13T06:47:17.697Z,12.56
2018-09-13T06:48:27.272Z,12.65
2018-09-13T06:49:37.492Z,12.68
2018-09-13T06:50:47.334Z,12.74
2018-09-13T06:51:56.638Z,12.68
2018-09-13T06:53:06.484Z,12.7
2018-09-13T06:54:16.768Z,12.64
2018-09-13T06:55:26.671Z,12.56
2018-09-13T06:56:37.040Z,12.57
2018-09-13T06:57:47.160Z,12.53
2018-09-13T06:58:57.001Z,12.54
2018-09-13T07:00:06.302Z,12.59
2018-09-13T07:01:16.450Z,12.6
2018-09-13T07:02:26.783Z,12.53
2018-09-13T07:03:36.777Z,12.54
2018-09-13T07:04:46.616Z,12.68
2018-09-13T07:05:56.458Z,12.54
2018-09-13T07:07:06.030Z,12.7
2018-09-13T07:08:16.025Z,12.65
2018-09-13T07:09:26.275Z,12.7
2018-09-13T07:10:36.163Z,12.75
2018-09-13T07:11:45.464Z,12.82
2018-09-13T07:12:55.030Z,12.72
2018-09-13T07:14:04.336Z,12.79
2018-09-13T07:15:13.945Z,12.72
2018-09-13T07:16:23.515Z,12.79
2018-09-13T07:17:32.550Z,12.83
2018-09-13T07:18:42.657Z,12.85
2018-09-13T07:19:52.005Z,12.86
2018-09-13T07:21:02.114Z,12.89
2018-09-13T07:22:11.448Z,12.95
2018-09-13T07:23:21.021Z,13
2018-09-13T07:24:30.869Z,13
2018-09-13T07:25:40.475Z,12.97
2018-09-13T07:26:50.623Z,13.03
2018-09-13T07:28:00.226Z,13.03
2018-09-13T07:29:10.067Z,13.07
2018-09-13T07:30:19.907Z,13.04
2018-09-13T07:31:29.795Z,13.03
2018-09-13T07:32:39.651Z,13.08
2018-09-13T07:33:49.761Z,13.03
2018-09-13T07:34:59.874Z,13.11
2018-09-13T07:36:09.451Z,13.03
2018-09-13T07:37:19.342Z,13.11
2018-09-13T07:38:28.919Z,13.1
2018-09-13T07:39:39.035Z,13.15
2018-09-13T07:40:48.602Z,13.32
2018-09-13T07:41:58.471Z,13.28
2018-09-13T07:43:08.586Z,13.25
2018-09-13T07:44:18.160Z,13.26
2018-09-13T07:45:27.734Z,13.33
2018-09-13T07:46:37.306Z,13.32
2018-09-13T07:47:47.421Z,13.32
2018-09-13T07:48:57.004Z,13.48
2018-09-13T07:50:06.976Z,13.48
2018-09-13T07:51:17.244Z,13.55
2018-09-13T07:52:27.368Z,13.48
2018-09-13T07:53:36.398Z,13.52
2018-09-13T07:54:46.288Z,13.49
2018-09-13T07:55:55.766Z,13.55
2018-09-13T07:57:05.071Z,13.67
2018-09-13T07:58:14.912Z,13.63
2018-09-13T07:59:24.222Z,13.71
2018-09-13T08:00:33.529Z,13.79
2018-09-13T08:01:43.370Z,13.78
2018-09-13T08:02:53.216Z,13.82
2018-09-13T08:04:02.790Z,13.89
2018-09-13T08:05:12.626Z,13.99
2018-09-13T08:06:22.231Z,14.09
2018-09-13T08:07:32.341Z,14.09
2018-09-13T08:08:41.906Z,14.1
2018-09-13T08:09:51.756Z,14.21
2018-09-13T08:11:01.049Z,14.32
2018-09-13T08:12:11.174Z,14.29
2018-09-13T08:13:21.108Z,14.43
2018-09-13T08:14:31.221Z,14.46
2018-09-13T08:15:41.385Z,14.47
2018-09-13T08:16:50.991Z,14.51
2018-09-13T08:18:00.886Z,14.62
2018-09-13T08:19:10.463Z,14.61
2018-09-13T08:20:20.308Z,14.61
2018-09-13T08:21:30.468Z,14.7
2018-09-13T08:22:40.106Z,14.7
2018-09-13T08:23:49.702Z,14.8
2018-09-13T08:24:59.547Z,14.88
2018-09-13T08:26:09.393Z,14.95
2018-09-13T08:27:19.474Z,15.11
2018-09-13T08:28:29.661Z,15.17
2018-09-13T08:29:39.505Z,15.28
2018-09-13T08:30:49.363Z,15.28
2018-09-13T08:31:59.404Z,15.28
2018-09-13T08:33:08.444Z,15.39
2018-09-13T08:34:18.416Z,15.47
2018-09-13T08:35:27.968Z,15.5
2018-09-13T08:36:37.980Z,15.53
2018-09-13T08:37:47.556Z,15.54
2018-09-13T08:38:57.666Z,15.53
2018-09-13T08:40:07.046Z,15.68
2018-09-13T08:41:17.390Z,15.62
2018-09-13T08:42:27.233Z,15.57
2018-09-13T08:43:36.549Z,15.74
2018-09-13T08:44:45.851Z,15.75
2018-09-13T08:45:55.698Z,15.74
2018-09-13T08:47:05.539Z,15.83
2018-09-13T08:48:15.343Z,15.84
2018-09-13T08:49:24.649Z,15.87
2018-09-13T08:50:34.768Z,15.93
2018-09-13T08:51:43.801Z,15.9
2018-09-13T08:52:53.695Z,15.94
2018-09-13T08:54:03.535Z,15.96
2018-09-13T08:55:14.030Z,15.93
2018-09-13T08:56:24.424Z,15.96
2018-09-13T08:57:34.336Z,16.02
2018-09-13T08:58:44.449Z,16.05
2018-09-13T08:59:54.591Z,16.08
2018-09-13T09:01:04.434Z,16.15
2018-09-13T09:02:14.309Z,16.17
2018-09-13T09:03:24.153Z,16.11
2018-09-13T09:04:34.273Z,16.25
2018-09-13T09:05:43.845Z,16.23
2018-09-13T09:06:53.683Z,16.23
2018-09-13T09:08:03.555Z,16.27
2018-09-13T09:09:13.392Z,16.25
2018-09-13T09:10:22.726Z,16.27
2018-09-13T09:11:32.606Z,16.21
2018-09-13T09:12:42.232Z,16.28
2018-09-13T09:13:51.534Z,16.33
2018-09-13T09:15:01.040Z,16.38
2018-09-13T09:16:10.335Z,16.33
2018-09-13T09:17:19.925Z,16.42
2018-09-13T09:18:29.688Z,16.41
2018-09-13T09:19:39.635Z,16.39
2018-09-13T09:20:49.754Z,16.34
2018-09-13T09:21:59.056Z,16.48
2018-09-13T09:23:08.627Z,16.45
2018-09-13T09:24:18.209Z,16.49
2018-09-13T09:25:28.053Z,16.46
2018-09-13T09:26:38.165Z,16.48
2018-09-13T09:27:47.800Z,16.43
2018-09-13T09:28:58.127Z,16.41
2018-09-13T09:30:06.846Z,16.42
2018-09-13T09:31:16.414Z,16.43
2018-09-13T09:32:25.981Z,16.48
2018-09-13T09:33:35.822Z,16.48
2018-09-13T09:34:45.184Z,16.48
2018-09-13T09:35:54.922Z,16.56
2018-09-13T09:37:04.494Z,16.63
2018-09-13T09:38:14.332Z,16.58
2018-09-13T09:39:23.904Z,16.68
2018-09-13T09:40:34.289Z,16.71
2018-09-13T09:41:44.042Z,16.73
2018-09-13T09:42:53.614Z,16.71
2018-09-13T09:44:03.311Z,16.68
2018-09-13T09:45:13.249Z,16.66
2018-09-13T09:46:23.093Z,16.75
2018-09-13T09:47:33.205Z,16.56
2018-09-13T09:48:43.046Z,16.66
2018-09-13T09:49:52.886Z,16.67
2018-09-13T09:51:01.976Z,16.67
2018-09-13T09:52:11.780Z,16.56
2018-09-13T09:53:21.380Z,16.56
2018-09-13T09:54:30.681Z,16.52
2018-09-13T09:55:40.257Z,16.57
2018-09-13T09:56:49.833Z,16.57
2018-09-13T09:57:59.714Z,16.66
2018-09-13T09:59:09.348Z,16.64
2018-09-13T10:00:18.922Z,16.71
2018-09-13T10:01:28.492Z,16.63
2018-09-13T10:02:38.336Z,16.66
2018-09-13T10:03:47.942Z,16.7
2018-09-13T10:04:58.053Z,16.64
2018-09-13T10:06:07.893Z,16.67
2018-09-13T10:07:17.773Z,16.67
2018-09-13T10:08:27.620Z,16.64
2018-09-13T10:09:37.071Z,16.58
2018-09-13T10:10:46.733Z,16.52
2018-09-13T10:11:56.866Z,16.52
2018-09-13T10:13:06.854Z,16.57
2018-09-13T10:14:16.181Z,16.61
2018-09-13T10:15:26.022Z,16.61
2018-09-13T10:16:35.865Z,16.6
2018-09-13T10:17:45.166Z,16.57
2018-09-13T10:18:55.275Z,16.63
2018-09-13T10:20:05.129Z,16.61
2018-09-13T10:21:14.699Z,16.57
2018-09-13T10:22:24.274Z,16.5
2018-09-13T10:23:33.598Z,16.58
2018-09-13T10:24:43.584Z,16.6
2018-09-13T10:25:53.441Z,16.63
2018-09-13T10:27:03.948Z,16.57
2018-09-13T10:28:13.866Z,16.57
2018-09-13T10:29:24.254Z,16.64
2018-09-13T10:30:34.398Z,16.57
2018-09-13T10:31:44.239Z,16.6
2018-09-13T10:32:53.817Z,16.58
2018-09-13T10:34:03.149Z,16.49
2018-09-13T10:35:12.458Z,16.56
2018-09-13T10:36:21.766Z,16.56
2018-09-13T10:37:31.612Z,16.57
2018-09-13T10:38:41.469Z,16.53
2018-09-13T10:39:51.066Z,16.45
2018-09-13T10:41:01.183Z,16.61
2018-09-13T10:42:10.495Z,16.58
2018-09-13T10:43:20.339Z,16.61
2018-09-13T10:44:30.476Z,16.63
2018-09-13T10:45:40.044Z,16.58
2018-09-13T10:46:49.923Z,16.7
2018-09-13T10:48:02.128Z,16.71
2018-09-13T10:49:12.261Z,16.81
2018-09-13T10:50:22.204Z,16.73
2018-09-13T10:51:31.871Z,16.75
2018-09-13T10:52:42.273Z,16.88
2018-09-13T10:53:52.356Z,16.93
2018-09-13T10:55:01.926Z,16.89
2018-09-13T10:56:11.509Z,17.01
2018-09-13T10:57:21.364Z,16.98
2018-09-13T10:58:31.486Z,17.04
2018-09-13T10:59:41.344Z,17.15
2018-09-13T11:00:50.926Z,17.22
2018-09-13T11:02:00.992Z,17.18
2018-09-13T11:03:10.836Z,17.16
2018-09-13T11:04:21.038Z,17.19
2018-09-13T11:05:29.806Z,17.28
2018-09-13T11:06:40.065Z,17.28
2018-09-13T11:07:49.910Z,17.36
2018-09-13T11:09:00.027Z,17.36
2018-09-13T11:10:09.330Z,17.33
2018-09-13T11:11:19.082Z,17.3
2018-09-13T11:12:29.484Z,17.28
2018-09-13T11:13:39.340Z,17.31
2018-09-13T11:14:48.647Z,17.3
2018-09-13T11:15:58.230Z,17.37
2018-09-13T11:17:08.069Z,17.34
2018-09-13T11:18:18.177Z,17.41
2018-09-13T11:19:27.989Z,17.56
2018-09-13T11:20:37.839Z,17.56
2018-09-13T11:21:47.881Z,17.64
2018-09-13T11:22:57.289Z,17.62
2018-09-13T11:24:07.130Z,17.64
2018-09-13T11:25:17.003Z,17.78
2018-09-13T11:26:26.582Z,17.93
2018-09-13T11:27:36.435Z,17.96
2018-09-13T11:28:45.770Z,17.99
2018-09-13T11:29:55.625Z,18.11
2018-09-13T11:31:05.480Z,18.12
2018-09-13T11:32:15.056Z,18.2
2018-09-13T11:33:25.197Z,18.17
2018-09-13T11:34:34.499Z,18.17
2018-09-13T11:35:44.397Z,18.21
2018-09-13T11:36:53.430Z,18.25
2018-09-13T11:38:03.002Z,18.3
2018-09-13T11:39:13.078Z,18.32
2018-09-13T11:40:23.563Z,18.29
2018-09-13T11:41:33.992Z,18.3
2018-09-13T11:42:43.012Z,18.36
2018-09-13T11:43:52.313Z,18.47
2018-09-13T11:45:02.155Z,18.48
2018-09-13T11:46:11.730Z,18.55
2018-09-13T11:47:21.398Z,18.57
2018-09-13T11:48:30.978Z,18.58
2018-09-13T11:49:40.819Z,18.6
2018-09-13T11:50:50.670Z,18.57
2018-09-13T11:51:59.706Z,18.65
2018-09-13T11:53:09.551Z,18.7
2018-09-13T11:54:19.689Z,18.78
2018-09-13T11:55:29.809Z,18.82
2018-09-13T11:56:39.376Z,18.98
2018-09-13T11:57:48.686Z,18.91
2018-09-13T11:58:58.263Z,18.95
2018-09-13T12:00:07.880Z,18.91
2018-09-13T12:01:17.876Z,19.07
2018-09-13T12:02:27.893Z,19.18
2018-09-13T12:03:37.207Z,19.25
2018-09-13T12:04:46.831Z,19.43
2018-09-13T12:05:56.685Z,19.55
2018-09-13T12:07:06.261Z,19.5
2018-09-13T12:08:15.849Z,19.51
2018-09-13T12:09:25.877Z,19.54
2018-09-13T12:10:35.581Z,19.44
2018-09-13T12:11:45.732Z,19.46
2018-09-13T12:12:55.865Z,19.39
2018-09-13T12:14:05.917Z,19.51
2018-09-13T12:15:15.764Z,19.59
2018-09-13T12:16:25.337Z,19.61
2018-09-13T12:17:34.915Z,19.74
2018-09-13T12:18:44.223Z,19.8
2018-09-13T12:19:53.818Z,19.87
2018-09-13T12:21:03.664Z,19.91
2018-09-13T12:22:12.702Z,19.91
2018-09-13T12:23:22.787Z,20.05
2018-09-13T12:24:32.640Z,19.91
2018-09-13T12:25:42.490Z,19.88
2018-09-13T12:26:52.123Z,20.01
2018-09-13T12:28:01.700Z,20.21
2018-09-13T12:29:11.025Z,20.23
2018-09-13T12:30:20.646Z,20.32
2018-09-13T12:31:30.452Z,20.38
2018-09-13T12:32:40.109Z,20.5
2018-09-13T12:33:50.831Z,20.48
2018-09-13T12:35:00.542Z,20.61
2018-09-13T12:36:10.390Z,20.54
2018-09-13T12:37:20.245Z,20.58
2018-09-13T12:38:30.092Z,20.61
2018-09-13T12:39:40.016Z,20.52
2018-09-13T12:40:50.142Z,20.55
2018-09-13T12:42:00.033Z,20.36
2018-09-13T12:43:09.894Z,20.43
2018-09-13T12:44:19.495Z,20.41
2018-09-13T12:45:29.341Z,20.47
2018-09-13T12:46:39.188Z,20.62
2018-09-13T12:47:49.032Z,20.73
2018-09-13T12:48:58.879Z,20.84
2018-09-13T12:50:08.457Z,20.72
2018-09-13T12:51:18.312Z,20.73
2018-09-13T12:52:27.897Z,20.61
2018-09-13T12:53:37.744Z,20.52
2018-09-13T12:54:47.595Z,20.5
2018-09-13T12:55:57.440Z,20.28
2018-09-13T12:57:06.537Z,20.35
2018-09-13T12:58:15.874Z,20.28
2018-09-13T12:59:25.725Z,20.26
2018-09-13T13:00:35.309Z,20.26
2018-09-13T13:01:45.156Z,20.23
2018-09-13T13:02:55.010Z,20.2
2018-09-13T13:04:04.595Z,20.06
2018-09-13T13:05:14.465Z,20.05
2018-09-13T13:06:24.306Z,19.96
2018-09-13T13:07:33.610Z,20.01
2018-09-13T13:08:42.989Z,19.99
2018-09-13T13:09:52.984Z,19.95
2018-09-13T13:11:02.290Z,19.94
2018-09-13T13:12:11.599Z,19.88
2018-09-13T13:13:21.181Z,19.86
2018-09-13T13:14:30.760Z,19.95
2018-09-13T13:15:40.098Z,19.88
2018-09-13T13:16:49.614Z,19.86
2018-09-13T13:17:59.330Z,19.86
2018-09-13T13:19:09.174Z,19.77
2018-09-13T13:20:18.221Z,19.78
2018-09-13T13:21:27.796Z,19.84
2018-09-13T13:22:37.877Z,19.86
2018-09-13T13:23:47.989Z,19.84
2018-09-13T13:24:58.107Z,19.84
2018-09-13T13:26:07.955Z,19.87
2018-09-13T13:27:17.791Z,19.91
2018-09-13T13:28:27.508Z,19.88
2018-09-13T13:29:37.356Z,19.92
2018-09-13T13:30:46.959Z,19.88
2018-09-13T13:31:56.272Z,19.92
2018-09-13T13:33:05.581Z,19.87
2018-09-13T13:34:15.438Z,19.88
2018-09-13T13:35:24.744Z,19.88
2018-09-13T13:36:35.084Z,19.86
2018-09-13T13:37:44.668Z,19.73
2018-09-13T13:38:53.974Z,19.73
2018-09-13T13:40:03.278Z,19.86
2018-09-13T13:41:12.940Z,19.87
2018-09-13T13:42:23.233Z,19.83
2018-09-13T13:43:33.346Z,19.92
2018-09-13T13:44:43.196Z,19.95
2018-09-13T13:45:53.049Z,19.94
2018-09-13T13:47:02.907Z,19.98
2018-09-13T13:48:12.263Z,20.14
2018-09-13T13:49:21.920Z,20.16
2018-09-13T13:50:31.963Z,20.32
2018-09-13T13:51:42.423Z,20.33
2018-09-13T13:52:52.271Z,20.42
2018-09-13T13:54:01.846Z,20.35
2018-09-13T13:55:11.174Z,20.31
2018-09-13T13:56:21.288Z,20.43
2018-09-13T13:57:30.865Z,20.33
2018-09-13T13:58:40.717Z,20.42
2018-09-13T13:59:50.423Z,20.31
2018-09-13T14:01:00.118Z,20.31
2018-09-13T14:02:09.971Z,20.42
2018-09-13T14:03:19.824Z,20.26
2018-09-13T14:04:29.674Z,20.29
2018-09-13T14:05:39.519Z,20.26
2018-09-13T14:06:49.106Z,20.28
2018-09-13T14:07:58.956Z,20.31
2018-09-13T14:09:08.533Z,20.28
2018-09-13T14:10:18.436Z,20.21
2018-09-13T14:11:28.296Z,20.2
2018-09-13T14:12:37.869Z,20.11
2018-09-13T14:13:46.907Z,19.98
2018-09-13T14:14:56.751Z,20.03
2018-09-13T14:16:06.324Z,19.91
2018-09-13T14:17:16.169Z,19.94
2018-09-13T14:18:25.742Z,19.76
2018-09-13T14:19:35.901Z,19.66
2018-09-13T14:20:46.754Z,19.69
2018-09-13T14:21:56.850Z,19.66
2018-09-13T14:23:06.964Z,19.68
2018-09-13T14:24:16.568Z,19.62
2018-09-13T14:25:26.409Z,19.58
2018-09-13T14:26:36.251Z,19.56
2018-09-13T14:27:46.102Z,19.59
2018-09-13T14:28:55.408Z,19.5
2018-09-13T14:30:05.267Z,19.43
2018-09-13T14:31:15.362Z,19.4
2018-09-13T14:32:25.267Z,19.43
2018-09-13T14:33:34.893Z,19.44
2018-09-13T14:34:44.236Z,19.32
2018-09-13T14:35:53.818Z,19.43
2018-09-13T14:37:03.401Z,19.37
2018-09-13T14:38:13.252Z,19.44
2018-09-13T14:39:22.829Z,19.4
2018-09-13T14:40:32.432Z,19.4
2018-09-13T14:41:42.020Z,19.4
2018-09-13T14:42:52.138Z,19.44
2018-09-13T14:44:01.988Z,19.4
2018-09-13T14:45:12.140Z,19.44
2018-09-13T14:46:21.979Z,19.39
2018-09-13T14:47:31.819Z,19.44
2018-09-13T14:48:41.430Z,19.44
2018-09-13T14:49:51.050Z,19.44
2018-09-13T14:51:00.660Z,19.37
2018-09-13T14:52:10.241Z,19.32
2018-09-13T14:53:19.812Z,19.39
2018-09-13T14:54:29.387Z,19.37
2018-09-13T14:55:38.748Z,19.4
2018-09-13T14:56:48.864Z,19.32
2018-09-13T14:57:58.443Z,19.22
2018-09-13T14:59:07.757Z,19.28
2018-09-13T15:00:17.617Z,19.21
2018-09-13T15:01:27.822Z,19.23